KG-0010 weather

Frunze Northwest Airport
Bishkek, Chuy Region, Kyrgyzstan

Public forecast

Using degrees Celsius for public forecast. Weather courtesy of forecast.io.

METAR (pilot weather report)

Closest report is Manas International Airport, 8.9 nm (16.5 km) N. Retrieved 2019/03/25 16:00 UTC (12 minutes ago):

UCFM 251600Z 09003MPS CAVOK 11/04 Q1019 R08/09//95 NOSIG

TAF (pilot weather forecast)

Closest forecast is Manas International Airport, 8.9 nm (16.5 km) N. Retrieved 2019/03/25 12:00 UTC (4 hours ago):

TAF UCFM 251039Z 2512/2612 34003G08MPS 9999 NSC TEMPO 2512/2515 22003G08MPS FM251500 12003G08MPS 5000 FU SCT050CB TEMPO 2515/2521 1500 BR FEW005 TEMPO 2521/2603 1500 BR BECMG 2605/2607 32003G08MPS 9999 NSW